createdAt,value
2022-09-16T00:01:40.298Z,99346.13
2022-09-16T00:04:30.098Z,99346.28
2022-09-16T00:07:20.221Z,99342.22
2022-09-16T00:10:09.771Z,99346.72
2022-09-16T00:12:58.077Z,99345.09
2022-09-16T00:15:47.297Z,99346.00
2022-09-16T00:18:35.713Z,99351.22
2022-09-16T00:21:25.511Z,99346.00
2022-09-16T00:24:15.659Z,99345.09
2022-09-16T00:27:04.232Z,99344.22
2022-09-16T00:29:52.712Z,99344.22
2022-09-16T00:32:41.205Z,99350.38
2022-09-16T00:35:29.579Z,99339.50
2022-09-16T00:38:19.627Z,99345.06
2022-09-16T00:41:08.406Z,99345.97
2022-09-16T00:43:58.181Z,99336.53
2022-09-16T00:46:47.381Z,99343.38
2022-09-16T00:49:35.792Z,99344.44
2022-09-16T00:52:24.179Z,99341.31
2022-09-16T00:55:18.248Z,99344.25
2022-09-16T00:58:11.566Z,99346.97
2022-09-16T01:01:00.005Z,99335.94
2022-09-16T01:03:52.312Z,99344.00
2022-09-16T01:06:40.693Z,99337.25
2022-09-16T01:09:29.254Z,99337.44
2022-09-16T01:12:18.909Z,99338.50
2022-09-16T01:15:08.233Z,99333.53
2022-09-16T01:18:09.019Z,99337.94
2022-09-16T01:21:22.961Z,99346.66
2022-09-16T01:24:41.958Z,99340.72
2022-09-16T01:28:00.511Z,99341.78
2022-09-16T01:30:56.512Z,99340.97
2022-09-16T01:33:51.867Z,99334.94
2022-09-16T01:36:46.614Z,99344.81
2022-09-16T01:39:40.616Z,99345.16
2022-09-16T01:42:34.201Z,99349.78
2022-09-16T01:45:25.428Z,99352.38
2022-09-16T01:48:20.034Z,99350.50
2022-09-16T01:51:11.124Z,99355.47
2022-09-16T01:54:04.744Z,99354.41
2022-09-16T01:56:55.678Z,99354.31
2022-09-16T01:59:45.530Z,99354.31
2022-09-16T02:02:37.347Z,99353.47
2022-09-16T02:05:30.254Z,99352.75
2022-09-16T02:08:21.991Z,99339.03
2022-09-16T02:11:11.669Z,99329.47
2022-09-16T02:14:04.158Z,99302.75
2022-09-16T02:16:55.230Z,99296.72
2022-09-16T02:19:45.347Z,99284.78
2022-09-16T02:22:37.536Z,99305.56
2022-09-16T02:25:26.014Z,99324.69
2022-09-16T02:28:17.223Z,99319.72
2022-09-16T02:31:08.317Z,99326.00
2022-09-16T02:33:58.939Z,99335.78
2022-09-16T02:36:50.014Z,99335.78
2022-09-16T02:39:40.811Z,99348.66
2022-09-16T02:42:29.780Z,99325.13
2022-09-16T02:45:18.322Z,99329.50
2022-09-16T02:48:11.248Z,99338.13
2022-09-16T02:51:05.062Z,99339.81
2022-09-16T02:53:56.230Z,99345.94
2022-09-16T02:56:46.240Z,99359.66
2022-09-16T02:59:34.570Z,99350.94
2022-09-16T03:02:23.026Z,99359.56
2022-09-16T03:05:11.429Z,99359.22
2022-09-16T03:08:01.391Z,99365.13
2022-09-16T03:10:49.745Z,99365.88
2022-09-16T03:13:43.181Z,99366.47
2022-09-16T03:16:34.629Z,99358.56
2022-09-16T03:19:26.947Z,99348.97
2022-09-16T03:22:19.699Z,99350.66
2022-09-16T03:25:12.352Z,99345.44
2022-09-16T03:28:04.088Z,99336.09
2022-09-16T03:30:59.510Z,99339.44
2022-09-16T03:33:50.857Z,99335.78
2022-09-16T03:36:43.378Z,99325.25
2022-09-16T03:39:31.799Z,99326.91
2022-09-16T03:42:20.319Z,99326.09
2022-09-16T03:45:11.570Z,99326.91
2022-09-16T03:48:01.395Z,99317.91
2022-09-16T03:50:49.783Z,99325.41
2022-09-16T03:53:38.200Z,99327.97
2022-09-16T03:56:26.645Z,99313.38
2022-09-16T03:59:14.998Z,99311.53
2022-09-16T04:02:03.764Z,99316.44
2022-09-16T04:04:53.502Z,99317.72
2022-09-16T04:07:41.878Z,99316.16
2022-09-16T04:10:30.259Z,99317.28
2022-09-16T04:13:18.620Z,99327.19
2022-09-16T04:16:07.325Z,99320.53
2022-09-16T04:18:55.773Z,99322.41
2022-09-16T04:21:45.555Z,99316.50
2022-09-16T04:24:33.872Z,99314.13
2022-09-16T04:27:22.205Z,99333.63
2022-09-16T04:30:13.112Z,99322.84
2022-09-16T04:33:01.434Z,99316.41
2022-09-16T04:35:49.737Z,99324.31
2022-09-16T04:38:39.616Z,99314.66
2022-09-16T04:41:28.513Z,99313.50
2022-09-16T04:44:17.065Z,99315.91
2022-09-16T04:47:05.700Z,99314.72
2022-09-16T04:49:54.015Z,99312.88
2022-09-16T04:52:42.455Z,99310.16
2022-09-16T04:55:32.378Z,99314.88
2022-09-16T04:58:20.752Z,99314.47
2022-09-16T05:01:12.619Z,99316.41
2022-09-16T05:04:03.318Z,99315.78
2022-09-16T05:06:51.658Z,99316.00
2022-09-16T05:09:40.041Z,99315.19
2022-09-16T05:12:29.731Z,99312.69
2022-09-16T05:15:18.249Z,99317.38
2022-09-16T05:18:06.718Z,99321.84
2022-09-16T05:20:59.101Z,99319.97
2022-09-16T05:23:48.044Z,99319.75
2022-09-16T05:26:37.836Z,99319.66
2022-09-16T05:29:27.513Z,99315.41
2022-09-16T05:32:15.862Z,99325.66
2022-09-16T05:35:04.285Z,99318.72
2022-09-16T05:37:52.614Z,99322.97
2022-09-16T05:40:41.013Z,99322.03
2022-09-16T05:43:29.351Z,99320.06
2022-09-16T05:46:21.097Z,99325.97
2022-09-16T05:49:09.809Z,99318.69
2022-09-16T05:51:58.120Z,99324.19
2022-09-16T05:54:46.817Z,99321.28
2022-09-16T05:57:35.289Z,99318.06
2022-09-16T06:00:23.619Z,99319.09
2022-09-16T06:03:13.774Z,99318.28
2022-09-16T06:06:02.619Z,99325.34
2022-09-16T06:08:51.282Z,99332.19
2022-09-16T06:11:41.259Z,99333.63
2022-09-16T06:14:29.700Z,99332.16
2022-09-16T06:17:18.193Z,99340.25
2022-09-16T06:20:13.960Z,99333.78
2022-09-16T06:23:02.345Z,99327.06
2022-09-16T06:25:59.470Z,99327.03
2022-09-16T06:28:49.241Z,99329.78
2022-09-16T06:31:37.929Z,99332.44
2022-09-16T06:34:26.872Z,99325.66
2022-09-16T06:37:16.583Z,99312.81
2022-09-16T06:40:05.753Z,99318.16
2022-09-16T06:42:57.182Z,99315.00
2022-09-16T06:45:48.393Z,99315.13
2022-09-16T06:48:37.275Z,99317.78
2022-09-16T06:51:26.819Z,99309.09
2022-09-16T06:54:16.806Z,99309.81
2022-09-16T06:57:09.915Z,99304.59
2022-09-16T07:00:00.494Z,99312.66
2022-09-16T07:02:49.077Z,99303.47
2022-09-16T07:05:37.544Z,99312.19
2022-09-16T07:08:26.008Z,99312.66
2022-09-16T07:11:18.987Z,99313.88
2022-09-16T07:14:07.400Z,99319.91
2022-09-16T07:16:55.943Z,99318.47
2022-09-16T07:19:44.593Z,99313.97
2022-09-16T07:22:33.177Z,99319.78
2022-09-16T07:25:21.822Z,99328.88
2022-09-16T07:28:11.636Z,99320.38
2022-09-16T07:31:03.115Z,99327.72
2022-09-16T07:33:51.959Z,99331.16
2022-09-16T07:36:42.612Z,99337.44
2022-09-16T07:39:31.307Z,99336.47
2022-09-16T07:42:20.095Z,99334.44
2022-09-16T07:45:11.283Z,99337.22
2022-09-16T07:47:59.825Z,99346.34
2022-09-16T07:50:56.896Z,99341.81
2022-09-16T07:53:45.621Z,99339.94
2022-09-16T07:56:36.238Z,99340.19
2022-09-16T07:59:24.795Z,99336.25
2022-09-16T08:02:14.729Z,99337.34
2022-09-16T08:05:03.694Z,99345.16
2022-09-16T08:07:52.185Z,99342.44
2022-09-16T08:10:41.256Z,99340.41
2022-09-16T08:13:31.360Z,99345.59
2022-09-16T08:16:21.116Z,99340.66
2022-09-16T08:19:11.703Z,99340.03
2022-09-16T08:22:00.085Z,99340.66
2022-09-16T08:24:48.441Z,99341.38
2022-09-16T08:27:37.012Z,99341.47
2022-09-16T08:30:25.550Z,99344.69
2022-09-16T08:33:14.019Z,99345.00
2022-09-16T08:36:05.250Z,99341.22
2022-09-16T08:38:56.138Z,99343.97
2022-09-16T08:42:11.988Z,99350.00
2022-09-16T08:45:21.509Z,99347.28
2022-09-16T08:48:27.940Z,99341.81
2022-09-16T08:51:20.521Z,99342.53
2022-09-16T08:54:12.769Z,99342.19
2022-09-16T08:57:03.361Z,99347.59
2022-09-16T08:59:54.794Z,99345.53
2022-09-16T09:02:48.762Z,99356.97
2022-09-16T09:05:44.198Z,99343.06
2022-09-16T09:08:41.956Z,99347.44
2022-09-16T09:11:34.796Z,99354.69
2022-09-16T09:14:33.968Z,99342.72
2022-09-16T09:17:28.671Z,99334.44
2022-09-16T09:20:28.033Z,99336.69
2022-09-16T09:23:29.030Z,99335.56
2022-09-16T09:26:22.357Z,99342.06
2022-09-16T09:29:38.640Z,99350.88
2022-09-16T09:32:48.048Z,99341.81
2022-09-16T09:35:50.877Z,99338.56
2022-09-16T09:38:54.457Z,99335.56
2022-09-16T09:41:46.878Z,99335.78
2022-09-16T09:44:46.087Z,99332.00
2022-09-16T09:47:38.023Z,99330.91
2022-09-16T09:50:30.542Z,99316.91
2022-09-16T09:53:22.106Z,99317.78
2022-09-16T09:56:19.422Z,99319.69
2022-09-16T09:59:26.734Z,99323.81
2022-09-16T10:02:17.945Z,99329.16
2022-09-16T10:05:07.545Z,99320.72
2022-09-16T10:07:58.603Z,99326.75
2022-09-16T10:10:50.798Z,99321.75
2022-09-16T10:13:39.145Z,99335.53
2022-09-16T10:16:30.839Z,99327.94
2022-09-16T10:19:24.685Z,99326.66
2022-09-16T10:22:20.643Z,99335.91
2022-09-16T10:25:24.903Z,99335.38
2022-09-16T10:28:22.019Z,99318.44
2022-09-16T10:31:11.935Z,99327.00
2022-09-16T10:34:02.168Z,99323.16
2022-09-16T10:37:00.784Z,99319.06
2022-09-16T10:39:54.288Z,99303.13
2022-09-16T10:42:48.104Z,99309.84
2022-09-16T10:45:37.807Z,99296.38
2022-09-16T10:48:28.832Z,99302.25
2022-09-16T10:51:26.387Z,99299.09
2022-09-16T10:54:28.035Z,99300.38
2022-09-16T10:57:30.359Z,99304.34
2022-09-16T11:00:20.163Z,99305.28
2022-09-16T11:03:28.727Z,99297.13
2022-09-16T11:06:33.890Z,99300.84
2022-09-16T11:09:27.597Z,99291.25
2022-09-16T11:12:34.796Z,99289.06
2022-09-16T11:15:33.203Z,99284.78
2022-09-16T11:18:30.708Z,99299.66
2022-09-16T11:21:31.974Z,99286.56
2022-09-16T11:24:43.411Z,99293.28
2022-09-16T11:27:40.885Z,99288.06
2022-09-16T11:30:29.467Z,99283.66
2022-09-16T11:33:25.374Z,99280.88
2022-09-16T11:36:38.630Z,99279.47
2022-09-16T11:39:52.218Z,99281.69
2022-09-16T11:42:43.188Z,99280.31
2022-09-16T11:45:43.701Z,99281.59
2022-09-16T11:48:48.449Z,99284.78
2022-09-16T11:51:56.696Z,99277.91
2022-09-16T11:54:59.500Z,99302.94
2022-09-16T11:57:51.280Z,99310.63
2022-09-16T12:00:39.679Z,99326.47
2022-09-16T12:03:32.052Z,99315.53
2022-09-16T12:06:23.727Z,99312.59
2022-09-16T12:09:17.703Z,99317.84
2022-09-16T12:12:12.264Z,99304.41
2022-09-16T12:15:05.673Z,99306.53
2022-09-16T12:17:56.468Z,99311.19
2022-09-16T12:20:47.288Z,99315.00
2022-09-16T12:23:41.210Z,99306.69
2022-09-16T12:26:34.671Z,99310.63
2022-09-16T12:29:28.277Z,99313.38
2022-09-16T12:32:20.967Z,99314.00
2022-09-16T12:35:14.047Z,99312.25
2022-09-16T12:38:02.449Z,99311.66
2022-09-16T12:41:09.032Z,99305.88
2022-09-16T12:44:35.533Z,99301.97
2022-09-16T12:48:02.748Z,99303.63
2022-09-16T12:51:12.281Z,99294.03
2022-09-16T12:54:20.083Z,99286.44
2022-09-16T12:57:25.423Z,99292.91
2022-09-16T13:00:20.318Z,99283.78
2022-09-16T13:03:15.684Z,99289.88
2022-09-16T13:06:08.357Z,99280.03
2022-09-16T13:08:56.996Z,99282.13
2022-09-16T13:15:07.263Z,99278.03
2022-09-16T13:17:57.057Z,99271.22
2022-09-16T13:20:51.681Z,99266.53
2022-09-16T13:23:42.827Z,99266.03
2022-09-16T13:26:40.972Z,99264.28
2022-09-16T13:29:43.997Z,99269.25
2022-09-16T13:32:39.466Z,99268.81
2022-09-16T13:35:41.157Z,99260.78
2022-09-16T13:38:39.614Z,99263.94
2022-09-16T13:41:34.537Z,99272.97
2022-09-16T13:44:40.131Z,99295.53
2022-09-16T13:47:34.312Z,99303.00
2022-09-16T13:50:23.910Z,99326.59
2022-09-16T13:53:29.615Z,99331.50
2022-09-16T13:56:34.281Z,99345.34
2022-09-16T13:59:34.836Z,99337.28
2022-09-16T14:02:38.255Z,99344.13
2022-09-16T14:06:03.373Z,99335.19
2022-09-16T14:08:59.222Z,99331.88
2022-09-16T14:11:50.682Z,99316.31
2022-09-16T14:14:47.796Z,99324.28
2022-09-16T14:17:40.828Z,99326.84
2022-09-16T14:20:29.391Z,99316.22
2022-09-16T14:23:25.939Z,99316.47
2022-09-16T14:26:19.891Z,99312.66
2022-09-16T14:29:12.213Z,99316.47
2022-09-16T14:32:00.651Z,99313.75
2022-09-16T14:34:50.366Z,99317.56
2022-09-16T14:37:38.926Z,99318.59
2022-09-16T14:40:27.793Z,99315.06
2022-09-16T14:43:19.744Z,99311.28
2022-09-16T14:46:08.670Z,99308.69
2022-09-16T14:48:57.137Z,99308.69
2022-09-16T14:51:46.982Z,99305.84
2022-09-16T14:54:35.360Z,99317.22
2022-09-16T14:57:24.852Z,99310.56
2022-09-16T15:00:16.964Z,99306.44
2022-09-16T15:03:08.469Z,99301.69
2022-09-16T15:05:56.825Z,99311.75
2022-09-16T15:08:47.517Z,99297.78
2022-09-16T15:11:47.996Z,99303.84
2022-09-16T15:14:38.695Z,99306.78
2022-09-16T15:17:28.884Z,99302.50
2022-09-16T15:20:21.617Z,99314.81
2022-09-16T15:23:21.537Z,99312.81
2022-09-16T15:26:16.568Z,99307.13
2022-09-16T15:29:07.965Z,99314.59
2022-09-16T15:31:56.302Z,99313.16
2022-09-16T15:34:46.284Z,99314.47
2022-09-16T15:37:35.569Z,99310.09
2022-09-16T15:40:35.682Z,99317.69
2022-09-16T15:43:27.849Z,99313.53
2022-09-16T15:46:20.851Z,99322.88
2022-09-16T15:49:11.928Z,99339.56
2022-09-16T15:52:07.752Z,99336.78
2022-09-16T15:54:58.729Z,99347.03
2022-09-16T15:57:47.143Z,99340.34
2022-09-16T16:01:02.585Z,99347.72
2022-09-16T16:03:57.044Z,99346.94
2022-09-16T16:06:48.511Z,99352.91
2022-09-16T16:09:42.580Z,99350.47
2022-09-16T16:12:32.302Z,99355.78
2022-09-16T16:15:23.624Z,99354.63
2022-09-16T16:18:12.086Z,99352.03
2022-09-16T16:21:01.696Z,99360.56
2022-09-16T16:23:50.228Z,99360.25
2022-09-16T16:26:39.946Z,99365.59
2022-09-16T16:29:28.283Z,99361.66
2022-09-16T16:32:18.131Z,99372.69
2022-09-16T16:35:07.624Z,99372.50
2022-09-16T16:37:55.942Z,99373.03
2022-09-16T16:40:51.675Z,99381.22
2022-09-16T16:43:41.470Z,99391.06
2022-09-16T16:46:30.537Z,99394.84
2022-09-16T16:49:18.906Z,99398.88
2022-09-16T16:52:08.698Z,99409.25
2022-09-16T16:54:57.007Z,99410.78
2022-09-16T16:57:46.456Z,99397.59
2022-09-16T17:00:36.174Z,99389.91
2022-09-16T17:03:24.991Z,99383.72
2022-09-16T17:06:13.416Z,99377.47
2022-09-16T17:09:01.907Z,99387.63
2022-09-16T17:11:54.818Z,99381.72
2022-09-16T17:14:43.363Z,99382.53
2022-09-16T17:17:33.087Z,99382.25
2022-09-16T17:20:21.459Z,99379.56
2022-09-16T17:23:09.834Z,99379.56
2022-09-16T17:25:58.246Z,99390.97
2022-09-16T17:28:48.295Z,99398.09
2022-09-16T17:31:39.343Z,99389.38
2022-09-16T17:34:29.032Z,99403.91
2022-09-16T17:37:19.748Z,99411.59
2022-09-16T17:40:09.495Z,99405.34
2022-09-16T17:42:57.865Z,99407.50
2022-09-16T17:45:49.289Z,99405.69
2022-09-16T17:48:38.752Z,99416.00
2022-09-16T17:51:28.827Z,99421.84
2022-09-16T17:54:17.351Z,99421.31
2022-09-16T17:57:05.795Z,99425.84
2022-09-16T17:59:54.603Z,99431.13
2022-09-16T18:02:43.009Z,99428.72
2022-09-16T18:05:33.737Z,99421.44
2022-09-16T18:08:24.886Z,99422.47
2022-09-16T18:11:14.374Z,99424.88
2022-09-16T18:14:04.992Z,99428.09
2022-09-16T18:16:53.834Z,99433.16
2022-09-16T18:19:42.265Z,99426.09
2022-09-16T18:22:30.935Z,99426.28
2022-09-16T18:25:20.610Z,99428.84
2022-09-16T18:28:08.971Z,99438.97
2022-09-16T18:31:03.979Z,99435.16
2022-09-16T18:33:52.833Z,99438.97
2022-09-16T18:36:41.179Z,99438.28
2022-09-16T18:39:29.490Z,99441.63
2022-09-16T18:42:19.170Z,99447.63
2022-09-16T18:45:09.088Z,99450.56
2022-09-16T18:47:57.759Z,99453.50
2022-09-16T18:50:46.319Z,99452.19
2022-09-16T18:53:34.612Z,99454.16
2022-09-16T18:56:24.750Z,99449.25
2022-09-16T18:59:21.458Z,99441.69
2022-09-16T19:02:13.290Z,99465.09
2022-09-16T19:05:01.840Z,99466.28
2022-09-16T19:07:50.230Z,99471.03
2022-09-16T19:10:39.025Z,99474.00
2022-09-16T19:13:27.346Z,99469.34
2022-09-16T19:16:17.110Z,99470.44
2022-09-16T19:19:05.527Z,99466.03
2022-09-16T19:21:53.898Z,99466.66
2022-09-16T19:24:43.926Z,99468.94
2022-09-16T19:27:33.619Z,99476.53
2022-09-16T19:30:22.498Z,99483.34
2022-09-16T19:33:12.261Z,99481.69
2022-09-16T19:36:00.656Z,99481.59
2022-09-16T19:38:49.918Z,99479.00
2022-09-16T19:41:39.793Z,99477.13
2022-09-16T19:44:28.250Z,99481.13
2022-09-16T19:47:16.596Z,99487.97
2022-09-16T19:50:07.480Z,99485.63
2022-09-16T19:52:55.895Z,99485.72
2022-09-16T19:55:44.299Z,99485.53
2022-09-16T19:58:34.366Z,99488.72
2022-09-16T20:01:24.456Z,99487.13
2022-09-16T20:04:12.912Z,99491.56
2022-09-16T20:07:02.579Z,99478.03
2022-09-16T20:09:50.923Z,99485.19
2022-09-16T20:12:39.285Z,99485.34
2022-09-16T20:15:27.619Z,99488.00
2022-09-16T20:18:15.990Z,99486.34
2022-09-16T20:21:05.090Z,99494.19
2022-09-16T20:23:55.143Z,99496.69
2022-09-16T20:26:43.466Z,99498.28
2022-09-16T20:29:31.853Z,99496.25
2022-09-16T20:32:20.596Z,99497.09
2022-09-16T20:35:10.083Z,99500.69
2022-09-16T20:37:58.419Z,99506.91
2022-09-16T20:40:48.262Z,99505.66
2022-09-16T20:43:36.765Z,99513.91
2022-09-16T20:46:26.199Z,99505.13
2022-09-16T20:49:16.395Z,99511.47
2022-09-16T20:52:04.726Z,99510.72
2022-09-16T20:54:53.070Z,99514.94
2022-09-16T20:57:42.743Z,99515.88
2022-09-16T21:00:33.523Z,99515.44
2022-09-16T21:03:21.871Z,99517.81
2022-09-16T21:06:11.989Z,99531.28
2022-09-16T21:09:01.790Z,99528.69
2022-09-16T21:11:51.095Z,99529.44
2022-09-16T21:14:40.831Z,99533.69
2022-09-16T21:17:30.410Z,99522.84
2022-09-16T21:20:18.752Z,99534.28
2022-09-16T21:23:07.196Z,99546.38
2022-09-16T21:25:56.373Z,99545.53
2022-09-16T21:28:45.647Z,99549.78
2022-09-16T21:31:37.955Z,99551.59
2022-09-16T21:34:26.613Z,99542.50
2022-09-16T21:37:14.951Z,99538.34
2022-09-16T21:40:03.709Z,99544.25
2022-09-16T21:42:52.102Z,99546.31
2022-09-16T21:45:44.995Z,99551.47
2022-09-16T21:48:34.727Z,99555.72
2022-09-16T21:51:23.075Z,99556.03
2022-09-16T21:54:11.597Z,99568.50
2022-09-16T21:57:00.028Z,99562.97
2022-09-16T21:59:48.431Z,99566.47
2022-09-16T22:02:36.938Z,99567.53
2022-09-16T22:05:26.736Z,99559.69
2022-09-16T22:08:15.083Z,99563.75
2022-09-16T22:11:03.983Z,99567.75
2022-09-16T22:13:52.954Z,99573.81
2022-09-16T22:16:41.393Z,99572.25
2022-09-16T22:19:29.743Z,99568.75
2022-09-16T22:22:21.427Z,99571.25
2022-09-16T22:25:10.496Z,99572.06
2022-09-16T22:27:58.849Z,99572.91
2022-09-16T22:30:47.169Z,99567.75
2022-09-16T22:33:35.745Z,99572.84
2022-09-16T22:36:25.580Z,99572.78
2022-09-16T22:39:16.507Z,99557.75
2022-09-16T22:42:05.403Z,99558.03
2022-09-16T22:44:53.747Z,99556.38
2022-09-16T22:47:42.100Z,99557.13
2022-09-16T22:50:30.456Z,99521.25
2022-09-16T22:53:18.828Z,99550.84
2022-09-16T22:56:10.673Z,99539.78
2022-09-16T22:58:59.456Z,99549.09
2022-09-16T23:01:48.009Z,99554.41
2022-09-16T23:04:36.645Z,99559.56
2022-09-16T23:07:25.016Z,99552.88
2022-09-16T23:10:13.394Z,99560.88
2022-09-16T23:13:03.088Z,99559.28
2022-09-16T23:15:53.605Z,99561.72
2022-09-16T23:18:42.307Z,99558.88
2022-09-16T23:21:30.898Z,99560.56
2022-09-16T23:24:21.126Z,99559.63
2022-09-16T23:27:09.438Z,99559.69
2022-09-16T23:29:59.144Z,99561.66
2022-09-16T23:32:47.537Z,99559.16
2022-09-16T23:35:35.884Z,99564.44
2022-09-16T23:38:24.295Z,99555.09
2022-09-16T23:41:15.269Z,99559.72
2022-09-16T23:44:03.771Z,99553.88
2022-09-16T23:46:53.483Z,99564.50
2022-09-16T23:49:41.954Z,99564.84
2022-09-16T23:52:30.331Z,99572.16
2022-09-16T23:55:18.799Z,99574.03
2022-09-16T23:58:07.173Z,99569.81
